Philadelphia, Pennsylvania
Traffic Map
Current Weather Conditions
Philadelphia, Pennsylvania
Overcast
Overcast

Feels Like: 0°
Wind Chill: Ceiling: 20000
Heat Index: Visibility: 10mi
Dew Point: -4° Wind: 17mph
Humidity: 53% Direction: 40° (NE)
Pressure: 29.88in Gusts: 0mph
Raw Report DataKPHL 080354Z 04015KT 10SM BKN200 OVC240 05/M04 A2988 RMK AO2 SLP116 T00501039
Traffic Incident Summary
Active as of:
Severity:
Category:
InformationThere was an issue retrieving the traffic information for this location. Please try a different location or try again shortly.
Advertisements
Track Severe Weather on mobile